Forside
METAR-TAF:

METAR-TAF

Lufthavne :

Växjö, Sverige

Breddekreds: 56-51N, længdekreds: 014-50E, højde: 199 m

Aktuelle vejr

Denne rapport blev lavet for 20 minutter siden, kl. 15:20 UTC
Vind 12 kt fra sydvest
Temperatur 16°C
Fugtighed 36%
Tryk 1021 hPa
Sigt 10 km eller mere
ingen skyer under 1500m og ingen cumulonimbus

METAR: ESMX 081520Z 22012KT CAVOK 16/01 Q1021

Tid: 17:40 (15:40 UTC)

Vejrudsigter

Denne rapport blev lavet for 4 timer og 10 minutter siden, kl. 11:30 UTC
Foreløbig gælder fra 08 på 12 UTC til 08 på 14 UTC
Vind 14 kt fra sydvest
Sigt 10 km eller mere
ingen skyer under 1500m og ingen cumulonimbus

TAF: ESMX 081130Z 0812/0814 23014KT CAVOK

Vejrobservationer og prognoser fra mere end 4000 lufthavne (METAR og TAF).

De gule og røde prikker repræsenterer de meteorologiske stationer.

Flyt musen over at se navnet på stationen.

Så klik over at se vejr observationer og prognoser.

At skifte det kort: Klik på de grønne knapper med et sort kors for at zoome ind; på den grønne knap med en bindestreg for at zoome ud; eller på de grønne pile for tilstødende kort.


METAR-TAF: